Terminal Aerodrome Forecast
Issued by NWS Upton, NY

Home | Current Version | Previous Version | Text Only | Print | Product List | Glossary On
Versions: 1 2 3 4 5 6 7 8 9 10 11 12 13 14 15 16 17 18 19 20 21 22 23 24 25 26 27 28
000
FTUS41 KOKX 041120
TAFJFK
TAF
KJFK 041120Z 0412/0518 04010KT P6SM SCT250
     FM041500 06012KT P6SM BKN050
     FM041700 07013G19KT P6SM BKN060
     FM042300 08011KT P6SM BKN100
     FM050300 06008KT P6SM BKN250
     FM050600 05009KT P6SM SCT250=

USA.gov is the U.S. government's official web portal to all federal, state and local government web resources and services.